1885 NOT_NAMED (1885197N12138)


IBTrACS version v04r00. Visit IBTrACS website for data access.
Please direct all questions to the IBTrACS Q and A forum

Storm track - Intensity - Wind Radii - Intensity Data - Source Data - All data

Summary Information

Storm ID 1885197N12138
Start Jul 16 04Z
End Jul 24 04Z
ATCF IDs
Track status Best track data.

Storm track plot

Map of storm track

Intensity plots

No Intensity information for this storm


Radial wind information

No radial wind information for this storm


Position and Intensity Table

BASIN ISO_TIME_________ NATURE LAT LON
degrees north degrees east
WP 1885-07-16 04:00:00 NR 12.00 137.80
WP 06:00:00 NR 12.02 137.55
WP 09:00:00 NR 12.04 137.18
WP 12:00:00 NR 12.07 136.83
WP 15:00:00 NR 12.09 136.50
WP 16:00:00 NR 12.10 136.40
WP 18:00:00 NR 12.12 136.21
WP 21:00:00 NR 12.14 135.94
WP 1885-07-17 00:00:00 NR 12.17 135.70
WP 03:00:00 NR 12.19 135.48
WP 04:00:00 NR 12.20 135.40
WP 06:00:00 NR 12.22 135.24
WP 09:00:00 NR 12.24 135.02
WP 12:00:00 NR 12.27 134.79
WP 15:00:00 NR 12.29 134.57
WP 16:00:00 NR 12.30 134.50
WP 18:00:00 NR 12.31 134.35
WP 21:00:00 NR 12.33 134.13
WP 1885-07-18 00:00:00 NR 12.36 133.91
WP 03:00:00 NR 12.39 133.68
WP 04:00:00 NR 12.40 133.60
WP 06:00:00 NR 12.42 133.44
WP 09:00:00 NR 12.47 133.19
WP 12:00:00 NR 12.52 132.94
WP 15:00:00 NR 12.58 132.68
WP 16:00:00 NR 12.60 132.60
WP 18:00:00 NR 12.64 132.44
WP 21:00:00 NR 12.70 132.19
WP 1885-07-19 00:00:00 NR 12.78 131.94
WP 03:00:00 NR 12.87 131.69
WP 04:00:00 NR 12.90 131.60
WP 06:00:00 NR 12.97 131.42
WP 09:00:00 NR 13.09 131.15
WP 12:00:00 NR 13.22 130.87
WP 15:00:00 NR 13.36 130.59
WP 16:00:00 NR 13.40 130.50
WP 18:00:00 NR 13.48 130.31
WP 21:00:00 NR 13.60 130.03
WP 1885-07-20 00:00:00 NR 13.72 129.76
WP 03:00:00 NR 13.85 129.49
WP 04:00:00 NR 13.90 129.40
WP 06:00:00 NR 14.00 129.23
WP 09:00:00 NR 14.17 128.98
WP 12:00:00 NR 14.35 128.73
WP 15:00:00 NR 14.54 128.48
WP 16:00:00 NR 14.60 128.40
WP 18:00:00 NR 14.72 128.24
WP 21:00:00 NR 14.90 127.99
WP 1885-07-21 00:00:00 NR 15.10 127.74
WP 03:00:00 NR 15.32 127.49
WP 04:00:00 NR 15.40 127.40
WP 06:00:00 NR 15.58 127.22
WP 09:00:00 NR 15.87 126.95
WP 12:00:00 NR 16.19 126.67
WP 15:00:00 NR 16.50 126.39
WP 16:00:00 NR 16.60 126.30
WP 18:00:00 NR 16.77 126.12
WP 21:00:00 NR 17.01 125.85
WP 1885-07-22 00:00:00 NR 17.27 125.57
WP 03:00:00 NR 17.58 125.29
WP 04:00:00 NR 17.70 125.20
WP 06:00:00 NR 17.97 124.99
WP 09:00:00 NR 18.43 124.66
WP 12:00:00 NR 18.95 124.34
WP 15:00:00 NR 19.51 124.07
WP 16:00:00 NR 19.70 124.00
WP 18:00:00 NR 20.10 123.88
WP 21:00:00 NR 20.73 123.74
WP 1885-07-23 00:00:00 NR 21.37 123.66
WP 03:00:00 NR 22.00 123.61
WP 04:00:00 NR 22.20 123.60
WP 06:00:00 NR 22.57 123.57
WP 09:00:00 NR 23.09 123.56
WP 12:00:00 NR 23.61 123.57
WP 15:00:00 NR 24.12 123.59
WP 16:00:00 NR 24.30 123.60
WP 18:00:00 NR 24.66 123.62
WP 21:00:00 NR 25.23 123.64
WP 1885-07-24 00:00:00 NR 25.81 123.67
WP 03:00:00 NR 26.40 123.69
WP 04:00:00 NR 26.60 123.70

Source Information

Agency Information
USA
TOKYO
CMA
HKO
NEWDELHI
REUNION
BOM
NADI
WELLINGTON
DS824
TD9636 cons_worldwide_trop_cyclone_18710101-19891231-003:Line=172
TD9635
NEUMANN
MLC

All available IBTrACS Data

SEASON BASIN SUBBASIN ISO_TIME_________ NATURE LAT LON DIST2LAND LANDFALL IFLAG USA SSHS TD9636 LAT TD9636 LON TD9636 STAGE STORM SPEED STORM DIR
Year degrees north degrees east km km 1 degrees north degrees east kts degrees
1885 WP MM 1885-07-16 04:00:00 NR 12.00 137.80 1306 1285 __________O___ -1 12.00 137.80 4 7 274
1885 WP MM 06:00:00 NR 12.02 137.55 1285 1243 __________P___ -1 12.02 137.55 4 7 274
1885 WP MM 09:00:00 NR 12.04 137.18 1243 1203 __________P___ -1 12.04 137.18 4 7 274
1885 WP MM 12:00:00 NR 12.07 136.83 1203 1172 __________P___ -1 12.07 136.83 4 7 274
1885 WP MM 15:00:00 NR 12.09 136.50 1172 1161 __________P___ -1 12.09 136.50 4 6 274
1885 WP MM 16:00:00 NR 12.10 136.40 1161 1140 __________O___ -1 12.10 136.40 4 6 275
1885 WP MM 18:00:00 NR 12.12 136.21 1140 1107 __________P___ -1 12.12 136.21 4 5 275
1885 WP MM 21:00:00 NR 12.14 135.94 1107 1087 __________P___ -1 12.14 135.94 4 5 276
1885 WP MM 1885-07-17 00:00:00 NR 12.17 135.70 1087 1065 __________P___ -1 12.17 135.70 4 5 276
1885 WP MM 03:00:00 NR 12.19 135.48 1065 1054 __________P___ -1 12.19 135.48 4 4 276
1885 WP MM 04:00:00 NR 12.20 135.40 1054 1033 __________O___ -1 12.20 135.40 4 5 276
1885 WP MM 06:00:00 NR 12.22 135.24 1033 1011 __________P___ -1 12.22 135.24 4 5 276
1885 WP MM 09:00:00 NR 12.24 135.02 1011 991 __________P___ -1 12.24 135.02 4 4 276
1885 WP MM 12:00:00 NR 12.27 134.79 991 969 __________P___ -1 12.27 134.79 4 4 277
1885 WP MM 15:00:00 NR 12.29 134.57 969 959 __________P___ -1 12.29 134.57 4 4 277
1885 WP MM 16:00:00 NR 12.30 134.50 959 948 __________O___ -1 12.30 134.50 4 4 276
1885 WP MM 18:00:00 NR 12.31 134.35 948 916 __________P___ -1 12.31 134.35 4 4 276
1885 WP MM 21:00:00 NR 12.33 134.13 916 896 __________P___ -1 12.33 134.13 4 4 276
1885 WP MM 1885-07-18 00:00:00 NR 12.36 133.91 896 874 __________P___ -1 12.36 133.91 4 4 277
1885 WP MM 03:00:00 NR 12.39 133.68 874 864 __________P___ -1 12.39 133.68 4 5 278
1885 WP MM 04:00:00 NR 12.40 133.60 864 842 __________O___ -1 12.40 133.60 4 5 279
1885 WP MM 06:00:00 NR 12.42 133.44 842 823 __________P___ -1 12.42 133.44 4 5 280
1885 WP MM 09:00:00 NR 12.47 133.19 823 791 __________P___ -1 12.47 133.19 4 5 281
1885 WP MM 12:00:00 NR 12.52 132.94 791 772 __________P___ -1 12.52 132.94 4 5 283
1885 WP MM 15:00:00 NR 12.58 132.68 772 761 __________P___ -1 12.58 132.68 4 5 284
1885 WP MM 16:00:00 NR 12.60 132.60 761 740 __________O___ -1 12.60 132.60 4 5 284
1885 WP MM 18:00:00 NR 12.64 132.44 740 722 __________P___ -1 12.64 132.44 4 5 285
1885 WP MM 21:00:00 NR 12.70 132.19 722 694 __________P___ -1 12.70 132.19 4 5 286
1885 WP MM 1885-07-19 00:00:00 NR 12.78 131.94 694 673 __________P___ -1 12.78 131.94 4 5 288
1885 WP MM 03:00:00 NR 12.87 131.69 676 666 __________P___ -1 12.87 131.69 4 5 290
1885 WP MM 04:00:00 NR 12.90 131.60 666 646 __________O___ -1 12.90 131.60 4 6 292
1885 WP MM 06:00:00 NR 12.97 131.42 646 616 __________P___ -1 12.97 131.42 4 6 294
1885 WP MM 09:00:00 NR 13.09 131.15 616 596 __________P___ -1 13.09 131.15 4 6 295
1885 WP MM 12:00:00 NR 13.22 130.87 596 566 __________P___ -1 13.22 130.87 4 6 296
1885 WP MM 15:00:00 NR 13.36 130.59 569 558 __________P___ -1 13.36 130.59 4 6 296
1885 WP MM 16:00:00 NR 13.40 130.50 558 540 __________O___ -1 13.40 130.50 4 6 294
1885 WP MM 18:00:00 NR 13.48 130.31 540 512 __________P___ -1 13.48 130.31 4 6 293
1885 WP MM 21:00:00 NR 13.60 130.03 512 495 __________P___ -1 13.60 130.03 4 6 294
1885 WP MM 1885-07-20 00:00:00 NR 13.72 129.76 495 469 __________P___ -1 13.72 129.76 4 6 296
1885 WP MM 03:00:00 NR 13.85 129.49 473 463 __________P___ -1 13.85 129.49 4 6 298
1885 WP MM 04:00:00 NR 13.90 129.40 463 448 __________O___ -1 13.90 129.40 4 6 301
1885 WP MM 06:00:00 NR 14.00 129.23 448 434 __________P___ -1 14.00 129.23 4 6 303
1885 WP MM 09:00:00 NR 14.17 128.98 440 418 __________P___ -1 14.17 128.98 4 6 305
1885 WP MM 12:00:00 NR 14.35 128.73 418 414 __________P___ -1 14.35 128.73 4 6 307
1885 WP MM 15:00:00 NR 14.54 128.48 414 413 __________P___ -1 14.54 128.48 4 6 308
1885 WP MM 16:00:00 NR 14.60 128.40 413 404 __________O___ -1 14.60 128.40 4 6 307
1885 WP MM 18:00:00 NR 14.72 128.24 404 403 __________P___ -1 14.72 128.24 4 6 307
1885 WP MM 21:00:00 NR 14.90 127.99 403 379 __________P___ -1 14.90 127.99 4 6 308
1885 WP MM 1885-07-21 00:00:00 NR 15.10 127.74 379 368 __________P___ -1 15.10 127.74 4 6 311
1885 WP MM 03:00:00 NR 15.32 127.49 368 363 __________P___ -1 15.32 127.49 4 7 313
1885 WP MM 04:00:00 NR 15.40 127.40 363 356 __________O___ -1 15.40 127.40 4 7 316
1885 WP MM 06:00:00 NR 15.58 127.22 356 349 __________P___ -1 15.58 127.22 4 8 318
1885 WP MM 09:00:00 NR 15.87 126.95 349 348 __________P___ -1 15.87 126.95 4 8 319
1885 WP MM 12:00:00 NR 16.19 126.67 356 348 __________P___ -1 16.19 126.67 4 8 319
1885 WP MM 15:00:00 NR 16.50 126.39 359 359 __________P___ -1 16.50 126.39 4 8 319
1885 WP MM 16:00:00 NR 16.60 126.30 361 358 __________O___ -1 16.60 126.30 4 8 315
1885 WP MM 18:00:00 NR 16.77 126.12 368 350 __________P___ -1 16.77 126.12 4 7 313
1885 WP MM 21:00:00 NR 17.01 125.85 350 330 __________P___ -1 17.01 125.85 4 7 314
1885 WP MM 1885-07-22 00:00:00 NR 17.27 125.57 331 302 __________P___ -1 17.27 125.57 4 8 317
1885 WP MM 03:00:00 NR 17.58 125.29 304 294 __________P___ -1 17.58 125.29 4 8 321
1885 WP MM 04:00:00 NR 17.70 125.20 297 283 __________O___ -1 17.70 125.20 4 10 323
1885 WP MM 06:00:00 NR 17.97 124.99 286 253 __________P___ -1 17.97 124.99 4 11 325
1885 WP MM 09:00:00 NR 18.43 124.66 253 218 __________P___ -1 18.43 124.66 4 12 328
1885 WP MM 12:00:00 NR 18.95 124.34 218 214 __________P___ -1 18.95 124.34 4 12 333
1885 WP MM 15:00:00 NR 19.51 124.07 225 223 __________P___ -1 19.51 124.07 4 12 337
1885 WP MM 16:00:00 NR 19.70 124.00 230 230 __________O___ -1 19.70 124.00 4 13 343
1885 WP MM 18:00:00 NR 20.10 123.88 253 253 __________P___ -1 20.10 123.88 4 13 347
1885 WP MM 21:00:00 NR 20.73 123.74 296 294 __________P___ -1 20.73 123.74 4 13 351
1885 WP MM 1885-07-23 00:00:00 NR 21.37 123.66 294 257 __________P___ -1 21.37 123.66 4 13 354
1885 WP MM 03:00:00 NR 22.00 123.61 257 247 __________P___ -1 22.00 123.61 4 13 356
1885 WP MM 04:00:00 NR 22.20 123.60 247 232 __________O___ -1 22.20 123.60 4 11 355
1885 WP MM 06:00:00 NR 22.57 123.57 232 224 __________P___ -1 22.57 123.57 4 11 358
1885 WP MM 09:00:00 NR 23.09 123.56 224 199 __________P___ -1 23.09 123.56 4 10 359
1885 WP MM 12:00:00 NR 23.61 123.57 199 177 __________P___ -1 23.61 123.57 4 10 2
1885 WP MM 15:00:00 NR 24.12 123.59 177 173 __________P___ -1 24.12 123.59 4 10 1
1885 WP MM 16:00:00 NR 24.30 123.60 173 164 __________O___ -1 24.30 123.60 4 11 0
1885 WP MM 18:00:00 NR 24.66 123.62 164 161 __________P___ -1 24.66 123.62 4 11 3
1885 WP MM 21:00:00 NR 25.23 123.64 162 164 __________P___ -1 25.23 123.64 4 12 2
1885 WP MM 1885-07-24 00:00:00 NR 25.81 123.67 192 192 __________P___ -1 25.81 123.67 4 12 2
1885 WP MM 03:00:00 NR 26.40 123.69 231 231 __________P___ -1 26.40 123.69 4 12 3
1885 WP MM 04:00:00 NR 26.60 123.70 246 __________O___ -1 26.60 123.70 4 12 0